Almadina, Brazil
Current Conditions -  °F | °C
As of 12:00 PM on Sunday 23 Nov 2014 (Local Time) from SBIL Reporting Station
Scattered Clouds Scattered Clouds  
Wind Chill: 82°   Ceiling: Unl
Heat Index: 88°   Visibility: 6mi
Dew Point: 73°   Wind: 14mph
Humidity: 74%   Direction: 80°E
Pressure: 29.97"   Gusts: NA
Location:  14.71°S, 39.64°W
Report Text: SBIL 231500Z 08012KT 9999 SCT030 SCT070 28/23 Q1015
Loading
Personal Weather Stations






























Interactive Weather Map New forecast layout! Learn more

10-Day Weather Forecast

Advertisements
Track Severe Weather on mobile